createdAt,value
2023-07-12T00:03:33.922Z,100483.19
2023-07-12T00:08:35.340Z,100463.72
2023-07-12T00:13:36.829Z,100438.91
2023-07-12T00:18:38.294Z,100424.91
2023-07-12T00:23:40.360Z,100414.41
2023-07-12T00:28:41.829Z,100424.56
2023-07-12T00:33:43.274Z,100416.78
2023-07-12T00:38:44.803Z,100409.94
2023-07-12T00:43:46.146Z,100406.53
2023-07-12T00:48:48.553Z,100405.88
2023-07-12T00:53:50.008Z,100414.09
2023-07-12T00:58:55.008Z,100403.63
2023-07-12T01:03:57.102Z,100387.78
2023-07-12T01:09:04.322Z,100373.72
2023-07-12T01:14:11.831Z,100366.78
2023-07-12T01:19:13.206Z,100381.28
2023-07-12T01:24:15.463Z,100367.28
2023-07-12T01:29:17.539Z,100363.06
2023-07-12T01:34:19.998Z,100358.78
2023-07-12T01:39:21.489Z,100366.16
2023-07-12T01:44:22.989Z,100363.69
2023-07-12T01:49:24.495Z,100370.19
2023-07-12T01:54:25.955Z,100353.44
2023-07-12T01:59:27.408Z,100356.22
2023-07-12T02:04:28.865Z,100354.72
2023-07-12T02:09:36.435Z,100351.19
2023-07-12T02:14:38.327Z,100349.53
2023-07-12T02:19:39.925Z,100343.59
2023-07-12T02:24:41.468Z,100336.59
2023-07-12T02:29:43.000Z,100332.31
2023-07-12T02:34:44.447Z,100325.28
2023-07-12T02:39:47.211Z,100336.19
2023-07-12T02:44:48.803Z,100324.78
2023-07-12T02:49:50.821Z,100334.75
2023-07-12T02:54:52.356Z,100332.16
2023-07-12T02:59:53.858Z,100326.94
2023-07-12T03:04:55.348Z,100317.28
2023-07-12T03:09:57.971Z,100317.38
2023-07-12T03:14:59.465Z,100305.06
2023-07-12T03:20:00.936Z,100298.88
2023-07-12T03:25:02.469Z,100281.13
2023-07-12T03:30:04.408Z,100257.94
2023-07-12T03:35:06.088Z,100250.94
2023-07-12T03:40:08.887Z,100245.56
2023-07-12T03:45:10.752Z,100252.69
2023-07-12T03:50:12.242Z,100254.47
2023-07-12T03:55:13.757Z,100249.94
2023-07-12T04:00:15.486Z,100240.91
2023-07-12T04:05:17.157Z,100227.41
2023-07-12T04:10:18.921Z,100214.56
2023-07-12T04:15:20.430Z,100215.09
2023-07-12T04:20:21.838Z,100218.91
2023-07-12T04:25:23.353Z,100216.25
2023-07-12T04:30:25.080Z,100216.16
2023-07-12T04:35:26.591Z,100205.22
2023-07-12T04:40:28.150Z,100206.63
2023-07-12T04:45:30.446Z,100199.16
2023-07-12T04:50:33.661Z,100205.53
2023-07-12T04:55:35.487Z,100205.03
2023-07-12T05:00:37.042Z,100208.63
2023-07-12T05:05:39.459Z,100192.66
2023-07-12T05:10:41.120Z,100197.94
2023-07-12T05:15:50.576Z,100203.50
2023-07-12T05:20:53.498Z,100196.28
2023-07-12T05:25:55.678Z,100201.09
2023-07-12T05:30:57.165Z,100193.66
2023-07-12T05:35:59.098Z,100179.50
2023-07-12T05:41:01.013Z,100188.88
2023-07-12T05:46:03.134Z,100188.56
2023-07-12T05:51:05.383Z,100182.25
2023-07-12T05:56:07.352Z,100180.41
2023-07-12T06:01:09.059Z,100174.94
2023-07-12T06:06:11.258Z,100174.84
2023-07-12T06:11:12.998Z,100181.44
2023-07-12T06:16:14.758Z,100187.34
2023-07-12T06:21:16.351Z,100174.06
2023-07-12T06:26:17.841Z,100175.59
2023-07-12T06:31:19.391Z,100154.19
2023-07-12T06:36:20.926Z,100153.84
2023-07-12T06:41:22.493Z,100133.41
2023-07-12T06:46:24.035Z,100127.28
2023-07-12T06:51:25.610Z,100122.63
2023-07-12T06:56:27.180Z,100118.63
2023-07-12T07:01:28.663Z,100113.72
2023-07-12T07:06:31.066Z,100116.69
2023-07-12T07:11:32.545Z,100107.56
2023-07-12T07:16:34.329Z,100089.84
2023-07-12T07:21:35.929Z,100078.06
2023-07-12T07:26:37.548Z,100069.09
2023-07-12T07:31:39.234Z,100056.97
2023-07-12T07:36:40.736Z,100059.81
2023-07-12T07:41:42.247Z,100055.34
2023-07-12T07:46:43.865Z,100051.16
2023-07-12T07:51:45.760Z,100046.31
2023-07-12T07:56:50.375Z,100049.41
2023-07-12T08:01:51.874Z,100051.97
2023-07-12T08:06:53.373Z,100045.13
2023-07-12T08:11:54.873Z,100028.38
2023-07-12T08:16:56.487Z,100038.75
2023-07-12T08:21:58.159Z,100036.72
2023-07-12T08:27:07.757Z,100028.25
2023-07-12T08:32:11.181Z,100041.44
2023-07-12T08:37:12.815Z,100045.41
2023-07-12T08:42:20.513Z,100037.56
2023-07-12T08:47:32.151Z,100030.38
2023-07-12T08:52:34.760Z,100013.09
2023-07-12T08:57:38.794Z,100002.03
2023-07-12T09:02:40.294Z,99998.09
2023-07-12T09:08:02.098Z,99998.03
2023-07-12T09:13:03.607Z,99978.91
2023-07-12T09:18:10.607Z,99970.03
2023-07-12T09:23:13.112Z,99964.56
2023-07-12T09:28:15.896Z,99974.38
2023-07-12T09:33:20.304Z,99978.97
2023-07-12T09:38:26.012Z,99960.94
2023-07-12T09:43:28.527Z,99945.56
2023-07-12T09:48:41.498Z,99926.41
2023-07-12T09:53:48.526Z,99923.13
2023-07-12T09:59:02.480Z,99911.06
2023-07-12T10:04:22.822Z,99897.56
2023-07-12T10:09:32.390Z,99895.59
2023-07-12T10:14:37.861Z,99917.19
2023-07-12T10:19:41.745Z,99916.03
2023-07-12T10:24:46.326Z,99904.13
2023-07-12T10:30:10.004Z,99907.19
2023-07-12T10:35:20.457Z,99912.53
2023-07-12T10:40:37.028Z,99911.50
2023-07-12T10:45:39.578Z,99904.75
2023-07-12T10:50:49.872Z,99908.94
2023-07-12T10:56:09.403Z,99899.44
2023-07-12T11:01:41.650Z,99895.13
2023-07-12T11:07:03.237Z,99893.97
2023-07-12T11:12:08.726Z,99901.63
2023-07-12T11:17:10.473Z,99905.75
2023-07-12T11:22:24.176Z,99917.31
2023-07-12T11:27:42.437Z,99947.53
2023-07-12T11:32:48.170Z,99978.03
2023-07-12T11:37:53.980Z,100011.94
2023-07-12T11:42:55.479Z,100018.09
2023-07-12T11:47:58.970Z,100012.97
2023-07-12T11:53:03.551Z,99998.47
2023-07-12T11:58:21.282Z,99992.75
2023-07-12T12:03:23.000Z,99962.72
2023-07-12T12:08:28.157Z,99948.06
2023-07-12T12:13:32.026Z,99926.97
2023-07-12T12:18:36.171Z,99931.13
2023-07-12T12:23:41.679Z,99945.47
2023-07-12T12:28:50.185Z,99945.97
2023-07-12T12:34:15.444Z,99929.66
2023-07-12T12:39:21.380Z,99934.88
2023-07-12T12:44:27.459Z,99938.22
2023-07-12T12:54:40.879Z,99921.00
2023-07-12T13:01:14.625Z,99916.41
2023-07-12T13:17:02.040Z,99934.41
2023-07-12T13:20:45.471Z,99943.81
2023-07-12T13:25:52.009Z,99956.47
2023-07-12T13:30:53.517Z,99971.94
2023-07-12T13:46:10.688Z,99971.94
2023-07-12T13:51:20.539Z,99962.78
2023-07-12T14:01:42.340Z,99966.97
2023-07-12T14:11:51.299Z,99973.78
2023-07-12T14:16:53.092Z,99968.31
2023-07-12T14:21:54.609Z,99963.34
2023-07-12T14:26:56.099Z,99962.81
2023-07-12T14:31:57.614Z,99954.38
2023-07-12T14:37:00.176Z,99957.59
2023-07-12T14:42:02.218Z,99951.75
2023-07-12T14:47:05.576Z,99964.47
2023-07-12T14:52:30.607Z,99940.97
2023-07-12T14:58:08.357Z,99942.69
2023-07-12T15:02:56.178Z,99942.34
2023-07-12T15:07:57.958Z,99942.81
2023-07-12T15:13:03.503Z,99950.88
2023-07-12T15:18:05.302Z,99941.81
2023-07-12T15:23:16.104Z,99947.53
2023-07-12T15:28:17.784Z,99954.25
2023-07-12T15:33:22.899Z,99946.56
2023-07-12T15:38:26.429Z,99946.13
2023-07-12T15:43:30.865Z,99944.63
2023-07-12T15:48:34.820Z,99940.44
2023-07-12T15:53:37.275Z,99936.38
2023-07-12T15:58:38.774Z,99943.22
2023-07-12T16:03:40.738Z,99963.09
2023-07-12T16:08:42.902Z,99959.00
2023-07-12T16:13:59.258Z,99945.03
2023-07-12T16:19:02.108Z,99928.69
2023-07-12T16:24:05.094Z,99938.47
2023-07-12T16:29:07.969Z,99925.59
2023-07-12T16:34:14.598Z,99921.03
2023-07-12T16:39:16.276Z,99945.22
2023-07-12T16:44:23.698Z,99944.13
2023-07-12T16:49:25.171Z,99942.25
2023-07-12T16:54:30.445Z,99965.53
2023-07-12T16:59:32.901Z,99987.09
2023-07-12T17:04:34.410Z,99985.91
2023-07-12T17:09:35.924Z,99974.75
2023-07-12T17:14:37.409Z,99962.75
2023-07-12T17:19:39.060Z,99975.22
2023-07-12T17:24:41.037Z,99980.28
2023-07-12T17:29:43.835Z,99979.03
2023-07-12T17:34:45.966Z,99968.75
2023-07-12T17:39:58.852Z,99978.16
2023-07-12T17:45:06.185Z,99981.34
2023-07-12T17:50:08.059Z,99988.97
2023-07-12T17:55:17.417Z,99969.50
2023-07-12T18:00:19.085Z,99964.66
2023-07-12T18:05:27.534Z,99989.38
2023-07-12T18:10:29.137Z,99985.28
2023-07-12T18:15:30.991Z,100002.81
2023-07-12T18:20:32.503Z,100008.69
2023-07-12T18:25:37.330Z,100021.78
2023-07-12T18:30:40.636Z,100014.19
2023-07-12T18:35:43.395Z,100025.63
2023-07-12T18:40:44.939Z,100020.75
2023-07-12T18:45:47.282Z,100037.66
2023-07-12T18:50:48.962Z,100051.66
2023-07-12T18:55:51.273Z,100055.91
2023-07-12T19:00:52.977Z,100053.75
2023-07-12T19:05:54.419Z,100067.00
2023-07-12T19:10:56.029Z,100073.97
2023-07-12T19:16:00.282Z,100067.53
2023-07-12T19:21:03.316Z,100072.00
2023-07-12T19:26:04.839Z,100068.06
2023-07-12T19:31:19.774Z,100073.44
2023-07-12T19:36:23.305Z,100078.66
2023-07-12T19:41:29.150Z,100086.66
2023-07-12T19:46:31.172Z,100077.50
2023-07-12T19:51:36.870Z,100076.59
2023-07-12T19:56:38.403Z,100095.22
2023-07-12T20:01:40.793Z,100090.66
2023-07-12T20:06:42.502Z,100095.91
2023-07-12T20:11:43.986Z,100093.81
2023-07-12T20:16:45.494Z,100091.81
2023-07-12T20:21:47.005Z,100097.06
2023-07-12T20:26:48.503Z,100105.78
2023-07-12T20:32:00.131Z,100103.72
2023-07-12T20:37:05.348Z,100102.28
2023-07-12T20:42:08.298Z,100098.28
2023-07-12T20:47:10.000Z,100107.84
2023-07-12T20:52:11.633Z,100113.72
2023-07-12T20:57:13.201Z,100099.00
2023-07-12T21:02:14.956Z,100118.25
2023-07-12T21:07:16.562Z,100121.34
2023-07-12T21:12:18.117Z,100137.09
2023-07-12T21:17:19.676Z,100137.72
2023-07-12T21:22:21.458Z,100139.84
2023-07-12T21:27:23.929Z,100142.13
2023-07-12T21:32:25.517Z,100125.47
2023-07-12T21:37:27.369Z,100119.53
2023-07-12T21:42:28.918Z,100137.94
2023-07-12T21:47:30.445Z,100137.41
2023-07-12T21:52:31.999Z,100136.81
2023-07-12T21:57:33.561Z,100141.63
2023-07-12T22:02:35.196Z,100153.72
2023-07-12T22:07:36.850Z,100147.72
2023-07-12T22:12:39.394Z,100155.25
2023-07-12T22:17:41.034Z,100155.59
2023-07-12T22:22:44.499Z,100150.63
2023-07-12T22:27:47.923Z,100165.44
2023-07-12T22:32:49.594Z,100157.31
2023-07-12T22:37:53.192Z,100171.94
2023-07-12T22:42:55.172Z,100175.94
2023-07-12T22:47:56.884Z,100176.25
2023-07-12T22:53:01.760Z,100164.03
2023-07-12T22:58:03.852Z,100177.78
2023-07-12T23:03:05.539Z,100178.13
2023-07-12T23:08:07.174Z,100179.16
2023-07-12T23:13:08.763Z,100182.25
2023-07-12T23:18:12.969Z,100188.84
2023-07-12T23:23:20.455Z,100189.03
2023-07-12T23:28:21.931Z,100198.41
2023-07-12T23:33:23.404Z,100181.50
2023-07-12T23:38:27.587Z,100195.25
2023-07-12T23:43:29.117Z,100192.78
2023-07-12T23:48:32.988Z,100188.59
2023-07-12T23:53:34.453Z,100176.19
2023-07-12T23:58:35.918Z,100172.88
